createdAt,value
2018-05-29T00:00:25.830Z,18.60
2018-05-29T00:02:53.435Z,19.53
2018-05-29T00:05:21.047Z,18.33
2018-05-29T00:07:48.679Z,19.60
2018-05-29T00:10:16.271Z,25.50
2018-05-29T00:12:43.935Z,21.73
2018-05-29T00:15:11.530Z,19.60
2018-05-29T00:17:39.138Z,23.37
2018-05-29T00:20:06.776Z,24.70
2018-05-29T00:22:34.382Z,21.03
2018-05-29T00:25:02.023Z,20.50
2018-05-29T00:27:29.646Z,22.70
2018-05-29T00:29:57.300Z,23.30
2018-05-29T00:32:24.925Z,26.90
2018-05-29T00:34:52.527Z,32.27
2018-05-29T00:37:20.155Z,26.63
2018-05-29T00:39:47.789Z,22.60
2018-05-29T00:42:15.390Z,27.33
2018-05-29T00:44:43.028Z,29.00
2018-05-29T00:47:10.643Z,24.90
2018-05-29T00:49:38.310Z,27.50
2018-05-29T00:52:05.914Z,24.20
2018-05-29T00:54:33.568Z,28.00
2018-05-29T00:57:01.196Z,38.90
2018-05-29T00:59:28.806Z,22.40
2018-05-29T01:01:56.455Z,23.07
2018-05-29T01:04:24.082Z,24.33
2018-05-29T01:06:51.702Z,23.77
2018-05-29T01:09:19.344Z,23.77
2018-05-29T01:11:46.961Z,27.00
2018-05-29T01:14:14.591Z,22.60
2018-05-29T01:16:42.208Z,23.30
2018-05-29T01:19:09.810Z,27.43
2018-05-29T01:21:37.445Z,26.47
2018-05-29T01:24:05.047Z,22.30
2018-05-29T01:26:32.680Z,23.20
2018-05-29T01:29:00.289Z,26.73
2018-05-29T01:31:27.907Z,26.10
2018-05-29T01:33:55.527Z,22.80
2018-05-29T01:36:23.146Z,34.73
2018-05-29T01:38:50.779Z,24.97
2018-05-29T01:41:18.388Z,25.33
2018-05-29T01:43:45.987Z,24.37
2018-05-29T01:46:13.615Z,26.07
2018-05-29T01:48:41.215Z,26.90
2018-05-29T01:51:08.838Z,25.10
2018-05-29T01:53:36.453Z,29.83
2018-05-29T01:56:04.066Z,31.53
2018-05-29T01:58:31.700Z,27.63
2018-05-29T02:00:59.310Z,24.70
2018-05-29T02:03:26.945Z,26.23
2018-05-29T02:05:54.557Z,27.00
2018-05-29T02:08:22.188Z,36.60
2018-05-29T02:10:49.800Z,34.53
2018-05-29T02:13:17.402Z,30.60
2018-05-29T02:15:45.125Z,28.40
2018-05-29T02:18:12.726Z,33.00
2018-05-29T02:20:40.526Z,28.00
2018-05-29T02:23:08.147Z,25.80
2018-05-29T02:25:35.753Z,28.67
2018-05-29T02:28:03.390Z,33.40
2018-05-29T02:30:30.991Z,30.70
2018-05-29T02:32:58.635Z,27.87
2018-05-29T02:35:26.251Z,27.03
2018-05-29T02:37:53.869Z,24.03
2018-05-29T02:40:21.499Z,31.50
2018-05-29T02:42:49.119Z,30.77
2018-05-29T02:45:16.754Z,27.33
2018-05-29T02:47:44.368Z,29.13
2018-05-29T02:50:11.980Z,37.00
2018-05-29T02:52:39.608Z,31.30
2018-05-29T02:55:07.233Z,29.03
2018-05-29T02:57:34.857Z,29.60
2018-05-29T03:00:02.520Z,29.30
2018-05-29T03:02:30.135Z,28.00
2018-05-29T03:04:57.799Z,29.60
2018-05-29T03:07:25.419Z,32.90
2018-05-29T03:09:53.160Z,30.13
2018-05-29T03:12:20.763Z,30.00
2018-05-29T03:14:48.375Z,30.80
2018-05-29T03:17:16.044Z,27.63
2018-05-29T03:19:43.650Z,32.87
2018-05-29T03:22:11.270Z,37.40
2018-05-29T03:24:38.902Z,33.50
2018-05-29T03:27:06.520Z,31.63
2018-05-29T03:29:34.184Z,32.73
2018-05-29T03:32:01.824Z,32.00
2018-05-29T03:34:29.515Z,29.63
2018-05-29T03:36:57.102Z,33.63
2018-05-29T03:39:24.714Z,35.10
2018-05-29T03:41:52.345Z,29.33
2018-05-29T03:44:19.951Z,26.50
2018-05-29T03:46:47.778Z,31.03
2018-05-29T03:49:15.477Z,29.20
2018-05-29T03:51:43.116Z,34.17
2018-05-29T03:54:10.754Z,32.10
2018-05-29T03:56:38.347Z,33.03
2018-05-29T03:59:06.844Z,37.10
2018-05-29T04:01:34.921Z,35.80
2018-05-29T04:04:02.844Z,34.30
2018-05-29T04:06:30.508Z,30.83
2018-05-29T04:08:58.226Z,28.33
2018-05-29T04:11:27.558Z,31.23
2018-05-29T04:13:55.193Z,26.50
2018-05-29T04:16:22.864Z,33.77
2018-05-29T04:18:50.551Z,28.67
2018-05-29T04:21:18.249Z,32.03
2018-05-29T04:23:45.898Z,36.27
2018-05-29T04:26:13.513Z,31.33
2018-05-29T04:28:41.112Z,34.50
2018-05-29T04:31:08.764Z,35.40
2018-05-29T04:33:36.443Z,33.87
2018-05-29T04:36:04.077Z,31.57
2018-05-29T04:38:31.691Z,35.93
2018-05-29T04:40:59.319Z,35.73
2018-05-29T04:43:26.942Z,29.77
2018-05-29T04:45:54.575Z,28.77
2018-05-29T04:48:22.192Z,37.13
2018-05-29T04:50:49.837Z,32.10
2018-05-29T04:53:17.442Z,30.97
2018-05-29T04:55:45.073Z,35.83
2018-05-29T04:58:12.686Z,29.67
2018-05-29T05:00:40.312Z,36.33
2018-05-29T05:03:07.935Z,33.10
2018-05-29T05:05:35.561Z,29.80
2018-05-29T05:08:03.185Z,32.07
2018-05-29T05:10:30.785Z,33.57
2018-05-29T05:12:58.422Z,27.53
2018-05-29T05:15:26.036Z,29.80
2018-05-29T05:17:53.638Z,28.47
2018-05-29T05:20:21.268Z,31.60
2018-05-29T05:22:51.921Z,28.63
2018-05-29T05:25:19.554Z,31.70
2018-05-29T05:27:47.166Z,31.40
2018-05-29T05:30:14.790Z,32.87
2018-05-29T05:32:42.500Z,30.23
2018-05-29T05:35:10.097Z,36.23
2018-05-29T05:37:37.736Z,33.00
2018-05-29T05:40:05.345Z,36.47
2018-05-29T05:42:32.991Z,36.50
2018-05-29T05:45:00.749Z,32.80
2018-05-29T05:47:28.358Z,24.30
2018-05-29T05:49:56.029Z,30.23
2018-05-29T05:52:23.642Z,29.57
2018-05-29T05:54:51.262Z,28.53
2018-05-29T05:57:18.878Z,27.60
2018-05-29T05:59:46.503Z,26.33
2018-05-29T06:02:14.160Z,29.30
2018-05-29T06:04:41.775Z,24.80
2018-05-29T06:07:09.403Z,25.80
2018-05-29T06:09:37.023Z,26.10
2018-05-29T06:12:04.663Z,27.13
2018-05-29T06:14:32.266Z,25.00
2018-05-29T06:17:02.073Z,25.77
2018-05-29T06:19:29.692Z,25.13
2018-05-29T06:21:57.293Z,26.63
2018-05-29T06:24:24.977Z,25.67
2018-05-29T06:26:52.544Z,29.47
2018-05-29T06:29:20.386Z,23.77
2018-05-29T06:31:48.001Z,29.10
2018-05-29T06:34:15.629Z,23.10
2018-05-29T06:36:43.258Z,26.37
2018-05-29T06:39:10.876Z,27.53
2018-05-29T06:41:38.529Z,20.33
2018-05-29T06:44:06.141Z,24.07
2018-05-29T06:46:33.756Z,20.57
2018-05-29T06:49:01.386Z,25.47
2018-05-29T06:51:28.996Z,23.50
2018-05-29T06:53:56.678Z,32.07
2018-05-29T06:56:24.275Z,27.53
2018-05-29T06:58:51.895Z,28.20
2018-05-29T07:01:19.536Z,25.37
2018-05-29T07:03:47.150Z,22.23
2018-05-29T07:06:14.871Z,18.77
2018-05-29T07:08:42.469Z,19.20
2018-05-29T07:11:10.629Z,18.60
2018-05-29T07:13:38.240Z,19.23
2018-05-29T07:16:05.866Z,18.50
2018-05-29T07:18:33.519Z,16.93
2018-05-29T07:21:01.153Z,17.77
2018-05-29T07:23:28.780Z,16.50
2018-05-29T07:25:56.385Z,19.57
2018-05-29T07:28:24.115Z,20.40
2018-05-29T07:30:51.925Z,19.37
2018-05-29T07:33:19.521Z,16.77
2018-05-29T07:35:47.134Z,23.23
2018-05-29T07:38:14.819Z,22.40
2018-05-29T07:40:42.452Z,23.90
2018-05-29T07:43:10.060Z,21.37
2018-05-29T07:45:37.909Z,22.30
2018-05-29T07:48:05.522Z,19.33
2018-05-29T07:50:33.134Z,19.90
2018-05-29T07:53:00.785Z,19.10
2018-05-29T07:55:28.391Z,19.20
2018-05-29T07:57:56.057Z,19.30
2018-05-29T08:00:24.506Z,28.13
2018-05-29T08:02:52.588Z,20.33
2018-05-29T08:05:20.200Z,26.50
2018-05-29T08:07:47.807Z,25.33
2018-05-29T08:10:15.435Z,19.00
2018-05-29T08:12:43.053Z,20.40
2018-05-29T08:15:11.200Z,22.07
2018-05-29T08:17:38.805Z,19.00
2018-05-29T08:20:06.447Z,19.27
2018-05-29T08:22:34.049Z,21.23
2018-05-29T08:25:01.669Z,19.50
2018-05-29T08:27:29.303Z,15.20
2018-05-29T08:29:56.951Z,19.10
2018-05-29T08:32:24.578Z,16.93
2018-05-29T08:34:52.179Z,19.13
2018-05-29T08:37:20.209Z,14.33
2018-05-29T08:39:47.844Z,15.07
2018-05-29T08:42:15.452Z,21.73
2018-05-29T08:44:43.094Z,20.73
2018-05-29T08:47:11.017Z,19.13
2018-05-29T08:49:38.674Z,20.90
2018-05-29T08:52:06.290Z,16.20
2018-05-29T08:54:33.941Z,15.70
2018-05-29T08:57:01.565Z,18.20
2018-05-29T08:59:29.213Z,12.47
2018-05-29T09:01:56.835Z,14.47
2018-05-29T09:04:24.450Z,17.73
2018-05-29T09:06:52.204Z,15.73
2018-05-29T09:09:19.815Z,18.33
2018-05-29T09:11:47.771Z,18.13
2018-05-29T09:14:15.363Z,16.37
2018-05-29T09:16:43.026Z,18.60
2018-05-29T09:19:10.829Z,17.37
2018-05-29T09:21:38.604Z,18.00
2018-05-29T09:24:06.225Z,24.70
2018-05-29T09:26:33.832Z,16.80
2018-05-29T09:29:01.687Z,24.23
2018-05-29T09:31:29.455Z,21.63
2018-05-29T09:33:57.123Z,19.70
2018-05-29T09:36:24.833Z,19.23
2018-05-29T09:38:52.584Z,16.63
2018-05-29T09:41:20.214Z,20.63
2018-05-29T09:43:47.817Z,16.33
2018-05-29T09:46:15.632Z,16.57
2018-05-29T09:48:43.261Z,14.60
2018-05-29T09:51:10.885Z,17.23
2018-05-29T09:53:38.515Z,14.00
2018-05-29T09:56:06.117Z,17.33
2018-05-29T09:58:33.755Z,25.53
2018-05-29T10:01:01.575Z,14.00
2018-05-29T10:03:29.464Z,15.63
2018-05-29T10:05:57.089Z,14.80
2018-05-29T10:08:24.706Z,16.13
2018-05-29T10:10:52.343Z,17.70
2018-05-29T10:13:19.972Z,15.57
2018-05-29T10:15:48.127Z,13.13
2018-05-29T10:18:16.076Z,14.80
2018-05-29T10:20:45.470Z,19.47
2018-05-29T10:23:13.242Z,16.57
2018-05-29T10:25:40.848Z,19.60
2018-05-29T10:28:08.471Z,13.87
2018-05-29T10:30:36.075Z,12.53
2018-05-29T10:33:03.879Z,16.57
2018-05-29T10:35:31.494Z,12.30
2018-05-29T10:37:59.146Z,13.47
2018-05-29T10:40:26.744Z,11.03
2018-05-29T10:42:54.343Z,14.90
2018-05-29T10:45:22.340Z,21.33
2018-05-29T10:47:49.951Z,20.63
2018-05-29T10:50:18.563Z,14.23
2018-05-29T10:52:46.436Z,21.60
2018-05-29T10:55:14.103Z,12.33
2018-05-29T10:57:41.723Z,16.10
2018-05-29T11:00:09.389Z,14.57
2018-05-29T11:02:37.014Z,9.40
2018-05-29T11:05:04.610Z,10.13
2018-05-29T11:07:33.141Z,20.50
2018-05-29T11:10:01.286Z,19.50
2018-05-29T11:12:29.559Z,14.40
2018-05-29T11:14:57.299Z,13.40
2018-05-29T11:17:25.097Z,17.13
2018-05-29T11:19:53.269Z,14.73
2018-05-29T11:22:21.241Z,12.93
2018-05-29T11:24:48.851Z,12.00
2018-05-29T11:27:16.921Z,17.73
2018-05-29T11:29:44.849Z,13.27
2018-05-29T11:32:12.810Z,11.90
2018-05-29T11:34:40.677Z,21.07
2018-05-29T11:37:08.284Z,15.53
2018-05-29T11:39:36.142Z,13.30
2018-05-29T11:42:04.585Z,20.00
2018-05-29T11:44:32.231Z,13.80
2018-05-29T11:46:59.838Z,19.90
2018-05-29T11:49:27.495Z,15.93
2018-05-29T11:51:55.103Z,11.50
2018-05-29T11:54:22.741Z,17.33
2018-05-29T11:56:50.672Z,12.47
2018-05-29T11:59:18.658Z,13.37
2018-05-29T12:01:46.300Z,14.40
2018-05-29T12:04:14.099Z,21.67
2018-05-29T12:06:41.739Z,11.93
2018-05-29T12:09:09.335Z,13.23
2018-05-29T12:11:36.973Z,14.40
2018-05-29T12:14:04.592Z,11.60
2018-05-29T12:16:32.192Z,11.67
2018-05-29T12:45:08.057Z,12.63
2018-05-29T12:47:35.659Z,19.03
2018-05-29T12:50:03.266Z,14.40
2018-05-29T12:52:30.887Z,22.00
2018-05-29T12:55:03.580Z,11.70
2018-05-29T12:57:31.554Z,12.67
2018-05-29T12:59:59.186Z,13.43
2018-05-29T13:02:28.090Z,11.10
2018-05-29T13:04:55.704Z,14.80
2018-05-29T13:07:24.241Z,25.90
2018-05-29T13:09:52.221Z,22.30
2018-05-29T13:12:20.156Z,10.67
2018-05-29T13:14:48.203Z,11.93
2018-05-29T13:17:16.018Z,10.90
2018-05-29T13:19:44.010Z,14.60
2018-05-29T13:22:11.625Z,11.80
2018-05-29T13:24:39.223Z,12.00
2018-05-29T13:27:06.905Z,13.07
2018-05-29T13:29:37.699Z,8.50
2018-05-29T13:32:05.365Z,14.10
2018-05-29T13:34:32.966Z,10.40
2018-05-29T13:37:00.615Z,13.67
2018-05-29T13:39:28.350Z,11.90
2018-05-29T13:41:56.656Z,16.60
2018-05-29T13:44:24.646Z,11.40
2018-05-29T13:46:52.264Z,13.07
2018-05-29T13:49:20.179Z,11.30
2018-05-29T13:51:47.767Z,8.47
2018-05-29T13:54:16.034Z,7.87
2018-05-29T13:56:43.688Z,28.57
2018-05-29T13:59:11.288Z,13.93
2018-05-29T14:01:38.939Z,10.67
2018-05-29T14:04:06.638Z,9.43
2018-05-29T14:06:34.309Z,5.73
2018-05-29T14:09:02.008Z,7.10
2018-05-29T14:11:29.721Z,25.00
2018-05-29T14:13:57.377Z,10.57
2018-05-29T14:16:24.983Z,17.93
2018-05-29T14:18:52.630Z,11.70
2018-05-29T14:21:20.383Z,41.13
2018-05-29T14:23:48.546Z,14.53
2018-05-29T14:26:16.142Z,9.30
2018-05-29T14:28:43.758Z,12.07
2018-05-29T14:31:11.447Z,23.07
2018-05-29T14:33:39.188Z,20.13
2018-05-29T14:36:07.299Z,22.10
2018-05-29T14:38:41.430Z,20.40
2018-05-29T14:41:09.817Z,19.00
2018-05-29T14:43:38.243Z,17.33
2018-05-29T14:46:05.852Z,13.40
2018-05-29T14:48:33.473Z,19.57
2018-05-29T14:51:01.279Z,11.10
2018-05-29T14:53:28.899Z,21.67
2018-05-29T14:55:56.545Z,21.63
2018-05-29T14:58:24.193Z,14.57
2018-05-29T15:00:52.009Z,13.70
2018-05-29T15:03:19.612Z,21.90
2018-05-29T15:05:47.240Z,14.73
2018-05-29T15:08:15.951Z,11.20
2018-05-29T15:10:43.592Z,16.03
2018-05-29T15:13:11.217Z,21.00
2018-05-29T15:15:38.873Z,10.93
2018-05-29T15:18:06.753Z,15.13
2018-05-29T15:20:34.833Z,12.13
2018-05-29T15:23:04.085Z,12.73
2018-05-29T15:25:32.155Z,14.87
2018-05-29T15:28:02.932Z,14.03
2018-05-29T15:30:31.013Z,23.30
2018-05-29T15:32:59.292Z,15.67
2018-05-29T15:35:28.332Z,15.63
2018-05-29T15:37:56.256Z,14.77
2018-05-29T15:40:24.247Z,18.57
2018-05-29T15:42:52.400Z,19.40
2018-05-29T15:45:20.478Z,15.17
2018-05-29T15:47:48.441Z,17.27
2018-05-29T15:50:17.534Z,17.90
2018-05-29T15:52:45.402Z,22.33
2018-05-29T15:55:13.440Z,30.33
2018-05-29T15:57:41.552Z,16.90
2018-05-29T16:00:09.620Z,22.57
2018-05-29T16:02:37.486Z,14.33
2018-05-29T16:05:05.537Z,24.13
2018-05-29T16:07:33.549Z,15.07
2018-05-29T16:10:03.227Z,47.63
2018-05-29T16:12:31.853Z,27.20
2018-05-29T16:14:59.723Z,34.77
2018-05-29T16:17:27.662Z,17.57
2018-05-29T16:19:55.302Z,21.53
2018-05-29T16:22:22.907Z,17.27
2018-05-29T16:24:50.556Z,16.37
2018-05-29T16:27:19.873Z,13.93
2018-05-29T16:29:47.560Z,13.17
2018-05-29T16:32:15.194Z,27.00
2018-05-29T16:34:43.019Z,19.73
2018-05-29T16:37:10.594Z,15.83
2018-05-29T16:39:38.206Z,16.03
2018-05-29T16:42:06.197Z,19.23
2018-05-29T16:44:33.874Z,29.57
2018-05-29T16:47:01.527Z,26.73
2018-05-29T16:49:29.540Z,16.40
2018-05-29T16:51:57.169Z,19.43
2018-05-29T16:54:24.796Z,27.17
2018-05-29T16:56:52.419Z,24.40
2018-05-29T16:59:20.107Z,16.30
2018-05-29T17:01:47.932Z,15.80
2018-05-29T17:04:15.541Z,17.07
2018-05-29T17:06:43.155Z,12.93
2018-05-29T17:09:10.798Z,29.03
2018-05-29T17:11:38.596Z,20.57
2018-05-29T17:14:06.339Z,23.40
2018-05-29T17:16:33.952Z,20.80
2018-05-29T17:19:01.580Z,20.50
2018-05-29T17:21:29.226Z,15.50
2018-05-29T17:23:57.383Z,25.23
2018-05-29T17:26:25.022Z,18.27
2018-05-29T17:28:52.639Z,17.43
2018-05-29T17:31:20.279Z,23.07
2018-05-29T17:33:47.942Z,23.80
2018-05-29T17:36:15.574Z,28.63
2018-05-29T17:38:43.257Z,24.50
2018-05-29T17:41:11.094Z,29.17
2018-05-29T17:43:38.704Z,34.10
2018-05-29T17:46:06.366Z,19.87
2018-05-29T17:48:33.991Z,26.90
2018-05-29T17:51:01.896Z,27.40
2018-05-29T17:53:29.507Z,18.43
2018-05-29T17:55:57.121Z,20.43
2018-05-29T17:58:24.775Z,20.87
2018-05-29T18:00:52.466Z,18.00
2018-05-29T18:03:20.126Z,30.47
2018-05-29T18:05:47.741Z,18.27
2018-05-29T18:08:15.497Z,24.37
2018-05-29T18:10:43.117Z,17.70
2018-05-29T18:13:10.746Z,25.13
2018-05-29T18:15:38.387Z,28.83
2018-05-29T18:18:05.988Z,21.40
2018-05-29T18:20:33.668Z,24.70
2018-05-29T18:23:01.316Z,20.00
2018-05-29T18:25:28.985Z,21.43
2018-05-29T18:27:56.670Z,22.13
2018-05-29T18:30:24.287Z,20.23
2018-05-29T18:32:52.407Z,21.53
2018-05-29T18:35:20.034Z,25.13
2018-05-29T18:37:47.676Z,15.30
2018-05-29T18:40:15.349Z,20.40
2018-05-29T18:42:43.904Z,23.40
2018-05-29T18:45:11.907Z,18.00
2018-05-29T18:47:39.541Z,21.07
2018-05-29T18:50:07.165Z,18.87
2018-05-29T18:52:34.823Z,22.30
2018-05-29T18:55:02.423Z,25.00
2018-05-29T18:57:30.075Z,20.83
2018-05-29T18:59:57.700Z,16.80
2018-05-29T19:02:25.336Z,22.03
2018-05-29T19:04:52.982Z,26.90
2018-05-29T19:07:20.593Z,20.07
2018-05-29T19:09:48.292Z,22.23
2018-05-29T19:12:15.870Z,22.30
2018-05-29T19:14:43.755Z,21.93
2018-05-29T19:17:11.409Z,22.43
2018-05-29T19:19:39.016Z,16.50
2018-05-29T19:22:06.673Z,15.03
2018-05-29T19:24:34.322Z,16.93
2018-05-29T19:27:01.962Z,30.37
2018-05-29T19:29:29.586Z,21.40
2018-05-29T19:31:57.687Z,31.43
2018-05-29T19:34:25.324Z,16.40
2018-05-29T19:36:52.950Z,20.23
2018-05-29T19:39:20.596Z,22.27
2018-05-29T19:41:48.215Z,13.20
2018-05-29T19:44:15.846Z,24.43
2018-05-29T19:46:43.459Z,19.80
2018-05-29T19:49:11.080Z,18.23
2018-05-29T19:51:38.727Z,21.50
2018-05-29T19:54:06.362Z,17.00
2018-05-29T19:56:34.220Z,19.90
2018-05-29T19:59:01.835Z,22.10
2018-05-29T20:01:29.502Z,22.03
2018-05-29T20:03:57.145Z,15.07
2018-05-29T20:06:24.747Z,16.97
2018-05-29T20:08:52.377Z,36.83
2018-05-29T20:11:20.003Z,19.20
2018-05-29T20:13:47.678Z,20.53
2018-05-29T20:16:15.302Z,17.60
2018-05-29T20:18:43.073Z,20.20
2018-05-29T20:21:10.693Z,24.23
2018-05-29T20:23:39.061Z,19.60
2018-05-29T20:26:06.704Z,23.87
2018-05-29T20:28:34.329Z,24.07
2018-05-29T20:31:01.963Z,23.93
2018-05-29T20:33:29.661Z,25.20
2018-05-29T20:35:57.344Z,24.47
2018-05-29T20:38:24.959Z,26.40
2018-05-29T20:40:52.854Z,16.70
2018-05-29T20:43:20.557Z,23.60
2018-05-29T20:45:48.184Z,23.27
2018-05-29T20:48:15.834Z,18.80
2018-05-29T20:50:43.478Z,20.30
2018-05-29T20:53:11.153Z,20.83
2018-05-29T20:55:38.791Z,17.87
2018-05-29T20:58:06.601Z,17.43
2018-05-29T21:00:34.215Z,18.13
2018-05-29T21:03:01.835Z,16.47
2018-05-29T21:05:29.481Z,21.00
2018-05-29T21:07:57.098Z,26.43
2018-05-29T21:10:24.742Z,22.10
2018-05-29T21:12:52.352Z,16.57
2018-05-29T21:15:20.015Z,20.57
2018-05-29T21:17:47.682Z,20.10
2018-05-29T21:20:15.298Z,29.07
2018-05-29T21:22:42.982Z,23.57
2018-05-29T21:25:10.608Z,21.67
2018-05-29T21:27:38.252Z,26.37
2018-05-29T21:30:05.870Z,30.90
2018-05-29T21:32:33.544Z,21.60
2018-05-29T21:35:01.163Z,20.90
2018-05-29T21:37:28.764Z,25.83
2018-05-29T21:39:56.407Z,21.03
2018-05-29T21:42:24.012Z,26.03
2018-05-29T21:44:51.651Z,22.13
2018-05-29T21:47:19.257Z,30.53
2018-05-29T21:49:46.999Z,21.70
2018-05-29T21:52:14.607Z,33.83
2018-05-29T21:54:42.221Z,37.40
2018-05-29T21:57:09.856Z,27.90
2018-05-29T21:59:37.459Z,21.83
2018-05-29T22:02:05.095Z,25.77
2018-05-29T22:04:32.751Z,27.83
2018-05-29T22:07:00.533Z,20.37
2018-05-29T22:09:28.134Z,23.23
2018-05-29T22:11:55.751Z,20.13
2018-05-29T22:14:23.395Z,22.77
2018-05-29T22:16:51.014Z,30.67
2018-05-29T22:19:18.652Z,21.40
2018-05-29T22:21:46.276Z,31.80
2018-05-29T22:24:13.940Z,20.60
2018-05-29T22:26:41.626Z,20.00
2018-05-29T22:29:09.229Z,21.40
2018-05-29T22:31:36.852Z,22.90
2018-05-29T22:34:04.490Z,21.00
2018-05-29T22:36:32.123Z,21.67
2018-05-29T22:38:59.737Z,26.27
2018-05-29T22:41:27.397Z,23.63
2018-05-29T22:43:55.089Z,17.70
2018-05-29T22:46:22.718Z,23.30
2018-05-29T22:48:50.352Z,19.00
2018-05-29T22:51:17.970Z,25.43
2018-05-29T22:53:45.714Z,19.10
2018-05-29T22:56:13.329Z,20.57
2018-05-29T22:58:40.951Z,24.43
2018-05-29T23:01:08.593Z,22.67
2018-05-29T23:03:36.210Z,23.97
2018-05-29T23:06:03.838Z,34.60
2018-05-29T23:08:31.452Z,22.37
2018-05-29T23:10:59.349Z,33.30
2018-05-29T23:13:26.953Z,27.17
2018-05-29T23:15:54.574Z,22.07
2018-05-29T23:18:22.232Z,33.53
2018-05-29T23:20:49.853Z,30.13
2018-05-29T23:23:17.494Z,23.40
2018-05-29T23:25:45.102Z,28.60
2018-05-29T23:28:12.902Z,23.13
2018-05-29T23:30:40.507Z,28.67
2018-05-29T23:33:08.138Z,18.90
2018-05-29T23:35:35.766Z,21.70
2018-05-29T23:38:03.384Z,18.87
2018-05-29T23:40:31.027Z,26.93
2018-05-29T23:42:58.626Z,22.07
2018-05-29T23:45:26.276Z,21.83
2018-05-29T23:47:53.887Z,26.33
2018-05-29T23:50:21.558Z,32.40
2018-05-29T23:52:49.177Z,32.17
2018-05-29T23:55:16.861Z,26.83
2018-05-29T23:57:44.495Z,33.90
